sensor_id;sensor_type;location;lat;lon;timestamp;P1;durP1;ratioP1;P2;durP2;ratioP2
40907;SDS011;51055;59.436;24.778;2022-09-01T00:00:00;2.85;;;0.90;;
40907;SDS011;51055;59.436;24.778;2022-09-01T00:02:30;1.90;;;0.80;;
40907;SDS011;51055;59.436;24.778;2022-09-01T00:07:30;3.65;;;1.10;;
40907;SDS011;51055;59.436;24.778;2022-09-01T00:09:58;2.55;;;1.10;;
40907;SDS011;51055;59.436;24.778;2022-09-01T00:12:26;2.28;;;1.00;;
40907;SDS011;51055;59.436;24.778;2022-09-01T00:14:55;1.83;;;1.00;;
40907;SDS011;51055;59.436;24.778;2022-09-01T00:17:24;4.07;;;0.90;;
40907;SDS011;51055;59.436;24.778;2022-09-01T00:19:52;1.87;;;1.00;;
40907;SDS011;51055;59.436;24.778;2022-09-01T00:22:20;1.98;;;0.95;;
40907;SDS011;51055;59.436;24.778;2022-09-01T00:24:47;2.90;;;0.90;;
40907;SDS011;51055;59.436;24.778;2022-09-01T00:27:15;1.00;;;0.88;;
40907;SDS011;51055;59.436;24.778;2022-09-01T00:29:44;3.30;;;1.08;;
40907;SDS011;51055;59.436;24.778;2022-09-01T00:32:11;2.08;;;0.88;;
40907;SDS011;51055;59.436;24.778;2022-09-01T00:34:39;1.20;;;0.80;;
40907;SDS011;51055;59.436;24.778;2022-09-01T00:37:07;3.42;;;1.10;;
40907;SDS011;51055;59.436;24.778;2022-09-01T00:39:34;2.10;;;1.00;;
40907;SDS011;51055;59.436;24.778;2022-09-01T00:42:02;2.90;;;0.88;;
40907;SDS011;51055;59.436;24.778;2022-09-01T00:44:31;1.08;;;0.73;;
40907;SDS011;51055;59.436;24.778;2022-09-01T00:46:59;2.17;;;1.20;;
40907;SDS011;51055;59.436;24.778;2022-09-01T00:49:29;1.85;;;0.93;;
40907;SDS011;51055;59.436;24.778;2022-09-01T00:52:04;4.00;;;1.00;;
40907;SDS011;51055;59.436;24.778;2022-09-01T00:54:35;3.65;;;1.00;;
40907;SDS011;51055;59.436;24.778;2022-09-01T00:57:06;2.25;;;0.93;;
40907;SDS011;51055;59.436;24.778;2022-09-01T01:02:05;1.83;;;0.70;;
40907;SDS011;51055;59.436;24.778;2022-09-01T01:04:32;2.38;;;0.80;;
40907;SDS011;51055;59.436;24.778;2022-09-01T01:07:00;2.92;;;1.00;;
40907;SDS011;51055;59.436;24.778;2022-09-01T01:09:31;2.70;;;0.70;;
40907;SDS011;51055;59.436;24.778;2022-09-01T01:12:02;2.47;;;1.00;;
40907;SDS011;51055;59.436;24.778;2022-09-01T01:14:33;2.67;;;0.95;;
40907;SDS011;51055;59.436;24.778;2022-09-01T01:17:04;1.95;;;0.90;;
40907;SDS011;51055;59.436;24.778;2022-09-01T01:19:43;2.97;;;0.95;;
40907;SDS011;51055;59.436;24.778;2022-09-01T01:28:04;1.90;;;1.00;;
40907;SDS011;51055;59.436;24.778;2022-09-01T01:30:35;1.80;;;0.95;;
40907;SDS011;51055;59.436;24.778;2022-09-01T01:33:06;2.17;;;1.05;;
40907;SDS011;51055;59.436;24.778;2022-09-01T01:35:34;3.65;;;1.13;;
40907;SDS011;51055;59.436;24.778;2022-09-01T01:38:02;2.00;;;0.90;;
40907;SDS011;51055;59.436;24.778;2022-09-01T01:40:34;2.40;;;1.00;;
40907;SDS011;51055;59.436;24.778;2022-09-01T01:43:04;3.22;;;0.80;;
40907;SDS011;51055;59.436;24.778;2022-09-01T01:45:32;1.30;;;0.75;;
40907;SDS011;51055;59.436;24.778;2022-09-01T01:48:00;1.95;;;0.90;;
40907;SDS011;51055;59.436;24.778;2022-09-01T01:50:32;2.72;;;0.80;;
40907;SDS011;51055;59.436;24.778;2022-09-01T01:53:04;2.78;;;1.00;;
40907;SDS011;51055;59.436;24.778;2022-09-01T01:55:38;2.60;;;1.08;;
40907;SDS011;51055;59.436;24.778;2022-09-01T01:58:08;2.78;;;0.80;;
40907;SDS011;51055;59.436;24.778;2022-09-01T02:00:41;1.63;;;0.80;;
40907;SDS011;51055;59.436;24.778;2022-09-01T02:03:13;2.28;;;1.05;;
40907;SDS011;51055;59.436;24.778;2022-09-01T02:05:48;1.58;;;0.90;;
40907;SDS011;51055;59.436;24.778;2022-09-01T02:08:19;2.45;;;1.00;;
40907;SDS011;51055;59.436;24.778;2022-09-01T02:10:52;1.58;;;1.00;;
40907;SDS011;51055;59.436;24.778;2022-09-01T02:13:22;2.60;;;0.90;;
40907;SDS011;51055;59.436;24.778;2022-09-01T02:15:54;1.58;;;0.90;;
40907;SDS011;51055;59.436;24.778;2022-09-01T02:18:27;0.98;;;0.73;;
40907;SDS011;51055;59.436;24.778;2022-09-01T02:21:02;2.13;;;0.95;;
40907;SDS011;51055;59.436;24.778;2022-09-01T02:23:42;0.98;;;0.70;;
40907;SDS011;51055;59.436;24.778;2022-09-01T02:26:09;3.25;;;0.85;;
40907;SDS011;51055;59.436;24.778;2022-09-01T02:28:44;1.95;;;1.10;;
40907;SDS011;51055;59.436;24.778;2022-09-01T02:31:21;1.85;;;0.73;;
40907;SDS011;51055;59.436;24.778;2022-09-01T02:33:50;2.95;;;0.88;;
40907;SDS011;51055;59.436;24.778;2022-09-01T02:36:19;1.63;;;1.00;;
40907;SDS011;51055;59.436;24.778;2022-09-01T02:38:47;3.15;;;0.85;;
40907;SDS011;51055;59.436;24.778;2022-09-01T02:41:20;4.13;;;0.85;;
40907;SDS011;51055;59.436;24.778;2022-09-01T02:43:50;1.45;;;0.90;;
40907;SDS011;51055;59.436;24.778;2022-09-01T02:46:17;1.25;;;0.90;;
40907;SDS011;51055;59.436;24.778;2022-09-01T02:48:50;2.58;;;1.15;;
40907;SDS011;51055;59.436;24.778;2022-09-01T02:51:21;3.95;;;1.50;;
40907;SDS011;51055;59.436;24.778;2022-09-01T02:53:52;2.90;;;1.40;;
40907;SDS011;51055;59.436;24.778;2022-09-01T02:56:21;2.33;;;1.25;;
40907;SDS011;51055;59.436;24.778;2022-09-01T02:58:52;2.10;;;1.10;;
40907;SDS011;51055;59.436;24.778;2022-09-01T03:01:22;2.85;;;0.98;;
40907;SDS011;51055;59.436;24.778;2022-09-01T03:03:53;4.05;;;0.95;;
40907;SDS011;51055;59.436;24.778;2022-09-01T03:06:23;2.45;;;1.00;;
40907;SDS011;51055;59.436;24.778;2022-09-01T03:08:53;1.80;;;0.80;;
40907;SDS011;51055;59.436;24.778;2022-09-01T03:11:22;3.53;;;0.90;;
40907;SDS011;51055;59.436;24.778;2022-09-01T03:13:50;2.03;;;0.90;;
40907;SDS011;51055;59.436;24.778;2022-09-01T03:16:19;2.88;;;1.05;;
40907;SDS011;51055;59.436;24.778;2022-09-01T03:18:49;1.25;;;0.82;;
40907;SDS011;51055;59.436;24.778;2022-09-01T03:21:18;3.17;;;1.10;;
40907;SDS011;51055;59.436;24.778;2022-09-01T03:23:47;2.33;;;1.27;;
40907;SDS011;51055;59.436;24.778;2022-09-01T03:26:16;2.75;;;1.05;;
40907;SDS011;51055;59.436;24.778;2022-09-01T03:28:48;1.38;;;0.90;;
40907;SDS011;51055;59.436;24.778;2022-09-01T03:31:17;1.85;;;1.00;;
40907;SDS011;51055;59.436;24.778;2022-09-01T03:33:46;1.58;;;0.90;;
40907;SDS011;51055;59.436;24.778;2022-09-01T03:36:14;2.53;;;1.10;;
40907;SDS011;51055;59.436;24.778;2022-09-01T03:38:46;3.20;;;1.20;;
40907;SDS011;51055;59.436;24.778;2022-09-01T03:41:16;1.40;;;0.80;;
40907;SDS011;51055;59.436;24.778;2022-09-01T03:43:45;2.22;;;1.00;;
40907;SDS011;51055;59.436;24.778;2022-09-01T03:46:15;1.85;;;1.10;;
40907;SDS011;51055;59.436;24.778;2022-09-01T03:48:52;3.28;;;1.20;;
40907;SDS011;51055;59.436;24.778;2022-09-01T03:51:22;4.53;;;1.20;;
40907;SDS011;51055;59.436;24.778;2022-09-01T03:53:53;2.20;;;1.00;;
40907;SDS011;51055;59.436;24.778;2022-09-01T03:56:22;2.28;;;1.30;;
40907;SDS011;51055;59.436;24.778;2022-09-01T03:58:52;2.10;;;1.30;;
40907;SDS011;51055;59.436;24.778;2022-09-01T04:01:23;2.53;;;1.35;;
40907;SDS011;51055;59.436;24.778;2022-09-01T04:03:52;2.92;;;1.08;;
40907;SDS011;51055;59.436;24.778;2022-09-01T04:06:20;1.60;;;0.90;;
40907;SDS011;51055;59.436;24.778;2022-09-01T04:08:51;2.05;;;0.98;;
40907;SDS011;51055;59.436;24.778;2022-09-01T04:11:29;1.70;;;0.90;;
40907;SDS011;51055;59.436;24.778;2022-09-01T04:16:27;2.85;;;1.13;;
40907;SDS011;51055;59.436;24.778;2022-09-01T04:19:17;2.25;;;1.10;;
40907;SDS011;51055;59.436;24.778;2022-09-01T04:21:47;2.00;;;0.95;;
40907;SDS011;51055;59.436;24.778;2022-09-01T04:24:17;1.95;;;1.00;;
40907;SDS011;51055;59.436;24.778;2022-09-01T04:26:46;4.03;;;1.40;;
40907;SDS011;51055;59.436;24.778;2022-09-01T04:29:18;3.58;;;1.20;;
40907;SDS011;51055;59.436;24.778;2022-09-01T04:31:55;2.35;;;1.10;;
40907;SDS011;51055;59.436;24.778;2022-09-01T04:34:29;3.08;;;1.20;;
40907;SDS011;51055;59.436;24.778;2022-09-01T04:37:07;2.72;;;1.45;;
40907;SDS011;51055;59.436;24.778;2022-09-01T04:39:41;2.90;;;1.20;;
40907;SDS011;51055;59.436;24.778;2022-09-01T04:42:20;2.38;;;1.10;;
40907;SDS011;51055;59.436;24.778;2022-09-01T04:44:50;3.42;;;1.10;;
40907;SDS011;51055;59.436;24.778;2022-09-01T04:47:20;2.03;;;1.10;;
40907;SDS011;51055;59.436;24.778;2022-09-01T04:50:03;2.15;;;0.85;;
40907;SDS011;51055;59.436;24.778;2022-09-01T04:52:40;4.30;;;1.10;;
40907;SDS011;51055;59.436;24.778;2022-09-01T04:55:12;1.15;;;0.75;;
40907;SDS011;51055;59.436;24.778;2022-09-01T04:57:47;1.98;;;1.00;;
40907;SDS011;51055;59.436;24.778;2022-09-01T05:00:16;2.67;;;1.10;;
40907;SDS011;51055;59.436;24.778;2022-09-01T05:02:53;2.83;;;0.90;;
40907;SDS011;51055;59.436;24.778;2022-09-01T05:05:34;2.17;;;0.93;;
40907;SDS011;51055;59.436;24.778;2022-09-01T05:08:05;2.53;;;1.00;;
40907;SDS011;51055;59.436;24.778;2022-09-01T05:10:39;1.67;;;0.80;;
40907;SDS011;51055;59.436;24.778;2022-09-01T05:13:10;1.63;;;0.73;;
40907;SDS011;51055;59.436;24.778;2022-09-01T05:15:40;2.20;;;1.10;;
40907;SDS011;51055;59.436;24.778;2022-09-01T05:18:16;1.70;;;0.80;;
40907;SDS011;51055;59.436;24.778;2022-09-01T05:20:50;2.67;;;0.88;;
40907;SDS011;51055;59.436;24.778;2022-09-01T05:23:18;4.35;;;1.17;;
40907;SDS011;51055;59.436;24.778;2022-09-01T05:25:48;2.58;;;0.90;;
40907;SDS011;51055;59.436;24.778;2022-09-01T05:28:21;1.10;;;0.70;;
40907;SDS011;51055;59.436;24.778;2022-09-01T05:30:53;2.53;;;0.90;;
40907;SDS011;51055;59.436;24.778;2022-09-01T05:33:21;1.52;;;0.82;;
40907;SDS011;51055;59.436;24.778;2022-09-01T05:35:55;3.17;;;0.90;;
40907;SDS011;51055;59.436;24.778;2022-09-01T05:38:26;1.80;;;0.90;;
40907;SDS011;51055;59.436;24.778;2022-09-01T05:40:57;3.25;;;1.15;;
40907;SDS011;51055;59.436;24.778;2022-09-01T05:43:30;2.70;;;0.93;;
40907;SDS011;51055;59.436;24.778;2022-09-01T05:45:59;3.03;;;0.90;;
40907;SDS011;51055;59.436;24.778;2022-09-01T05:48:33;1.98;;;0.90;;
40907;SDS011;51055;59.436;24.778;2022-09-01T05:51:06;1.45;;;0.80;;
40907;SDS011;51055;59.436;24.778;2022-09-01T05:53:55;2.17;;;0.95;;
40907;SDS011;51055;59.436;24.778;2022-09-01T05:56:26;1.65;;;0.80;;
40907;SDS011;51055;59.436;24.778;2022-09-01T05:58:55;1.60;;;0.85;;
40907;SDS011;51055;59.436;24.778;2022-09-01T06:01:44;1.38;;;0.80;;
40907;SDS011;51055;59.436;24.778;2022-09-01T06:04:17;2.70;;;0.80;;
40907;SDS011;51055;59.436;24.778;2022-09-01T06:06:46;3.80;;;0.93;;
40907;SDS011;51055;59.436;24.778;2022-09-01T06:09:35;3.58;;;1.05;;
40907;SDS011;51055;59.436;24.778;2022-09-01T06:12:13;2.08;;;0.90;;
40907;SDS011;51055;59.436;24.778;2022-09-01T06:14:46;2.42;;;0.90;;
40907;SDS011;51055;59.436;24.778;2022-09-01T06:17:16;3.40;;;0.93;;
40907;SDS011;51055;59.436;24.778;2022-09-01T06:19:54;1.60;;;0.80;;
40907;SDS011;51055;59.436;24.778;2022-09-01T06:22:24;2.95;;;0.80;;
40907;SDS011;51055;59.436;24.778;2022-09-01T06:24:54;3.00;;;0.98;;
40907;SDS011;51055;59.436;24.778;2022-09-01T06:27:28;3.00;;;0.90;;
40907;SDS011;51055;59.436;24.778;2022-09-01T06:29:56;5.75;;;1.40;;
40907;SDS011;51055;59.436;24.778;2022-09-01T06:32:24;3.13;;;0.90;;
40907;SDS011;51055;59.436;24.778;2022-09-01T06:34:53;3.42;;;0.90;;
40907;SDS011;51055;59.436;24.778;2022-09-01T06:37:24;2.08;;;0.80;;
40907;SDS011;51055;59.436;24.778;2022-09-01T06:39:52;3.03;;;0.90;;
40907;SDS011;51055;59.436;24.778;2022-09-01T06:42:20;2.78;;;0.98;;
40907;SDS011;51055;59.436;24.778;2022-09-01T06:44:49;3.13;;;0.98;;
40907;SDS011;51055;59.436;24.778;2022-09-01T06:47:17;3.30;;;1.05;;
40907;SDS011;51055;59.436;24.778;2022-09-01T06:49:45;2.17;;;0.70;;
40907;SDS011;51055;59.436;24.778;2022-09-01T06:52:13;3.05;;;0.80;;
40907;SDS011;51055;59.436;24.778;2022-09-01T06:54:44;2.67;;;0.80;;
40907;SDS011;51055;59.436;24.778;2022-09-01T06:57:12;2.03;;;0.77;;
40907;SDS011;51055;59.436;24.778;2022-09-01T06:59:59;3.03;;;0.90;;
40907;SDS011;51055;59.436;24.778;2022-09-01T07:02:30;2.08;;;1.00;;
40907;SDS011;51055;59.436;24.778;2022-09-01T07:05:00;1.67;;;0.85;;
40907;SDS011;51055;59.436;24.778;2022-09-01T07:07:29;1.85;;;0.77;;
40907;SDS011;51055;59.436;24.778;2022-09-01T07:10:23;3.42;;;0.90;;
40907;SDS011;51055;59.436;24.778;2022-09-01T07:12:56;2.88;;;0.90;;
40907;SDS011;51055;59.436;24.778;2022-09-01T07:15:36;2.45;;;1.00;;
40907;SDS011;51055;59.436;24.778;2022-09-01T07:18:28;2.25;;;0.88;;
40907;SDS011;51055;59.436;24.778;2022-09-01T07:20:58;3.47;;;0.90;;
40907;SDS011;51055;59.436;24.778;2022-09-01T07:23:46;3.00;;;0.80;;
40907;SDS011;51055;59.436;24.778;2022-09-01T07:26:34;4.07;;;0.88;;
40907;SDS011;51055;59.436;24.778;2022-09-01T07:29:13;1.73;;;1.02;;
40907;SDS011;51055;59.436;24.778;2022-09-01T07:31:41;2.45;;;0.90;;
40907;SDS011;51055;59.436;24.778;2022-09-01T07:34:30;3.65;;;0.80;;
40907;SDS011;51055;59.436;24.778;2022-09-01T07:37:07;3.50;;;0.90;;
40907;SDS011;51055;59.436;24.778;2022-09-01T07:39:55;2.15;;;0.80;;
40907;SDS011;51055;59.436;24.778;2022-09-01T07:42:23;3.42;;;1.02;;
40907;SDS011;51055;59.436;24.778;2022-09-01T07:45:11;3.60;;;1.05;;
40907;SDS011;51055;59.436;24.778;2022-09-01T07:47:56;1.95;;;0.90;;
40907;SDS011;51055;59.436;24.778;2022-09-01T07:50:34;1.80;;;0.82;;
40907;SDS011;51055;59.436;24.778;2022-09-01T07:53:07;4.53;;;0.93;;
40907;SDS011;51055;59.436;24.778;2022-09-01T07:55:38;2.85;;;1.00;;
40907;SDS011;51055;59.436;24.778;2022-09-01T07:58:10;2.35;;;0.80;;
40907;SDS011;51055;59.436;24.778;2022-09-01T08:00:39;1.55;;;0.88;;
40907;SDS011;51055;59.436;24.778;2022-09-01T08:03:09;1.95;;;0.88;;
40907;SDS011;51055;59.436;24.778;2022-09-01T08:05:37;1.77;;;0.70;;
40907;SDS011;51055;59.436;24.778;2022-09-01T08:08:05;2.08;;;0.90;;
40907;SDS011;51055;59.436;24.778;2022-09-01T08:10:44;2.38;;;0.90;;
40907;SDS011;51055;59.436;24.778;2022-09-01T08:13:16;2.67;;;0.90;;
40907;SDS011;51055;59.436;24.778;2022-09-01T08:15:48;1.20;;;0.70;;
40907;SDS011;51055;59.436;24.778;2022-09-01T08:18:36;2.90;;;0.77;;
40907;SDS011;51055;59.436;24.778;2022-09-01T08:21:19;2.05;;;0.70;;
40907;SDS011;51055;59.436;24.778;2022-09-01T08:23:51;2.80;;;0.73;;
40907;SDS011;51055;59.436;24.778;2022-09-01T08:26:21;2.95;;;0.63;;
40907;SDS011;51055;59.436;24.778;2022-09-01T08:28:51;1.98;;;0.70;;
40907;SDS011;51055;59.436;24.778;2022-09-01T08:31:22;3.42;;;0.90;;
40907;SDS011;51055;59.436;24.778;2022-09-01T08:33:50;1.73;;;0.75;;
40907;SDS011;51055;59.436;24.778;2022-09-01T08:36:19;3.22;;;0.93;;
40907;SDS011;51055;59.436;24.778;2022-09-01T08:38:52;3.05;;;0.75;;
40907;SDS011;51055;59.436;24.778;2022-09-01T08:43:58;2.25;;;0.90;;
40907;SDS011;51055;59.436;24.778;2022-09-01T08:46:32;2.17;;;0.80;;
40907;SDS011;51055;59.436;24.778;2022-09-01T08:49:05;1.70;;;0.88;;
40907;SDS011;51055;59.436;24.778;2022-09-01T08:54:38;2.83;;;1.10;;
40907;SDS011;51055;59.436;24.778;2022-09-01T08:57:13;2.67;;;0.80;;
40907;SDS011;51055;59.436;24.778;2022-09-01T09:00:05;3.97;;;0.88;;
40907;SDS011;51055;59.436;24.778;2022-09-01T09:02:42;2.28;;;1.08;;
40907;SDS011;51055;59.436;24.778;2022-09-01T09:16:11;1.40;;;0.80;;
40907;SDS011;51055;59.436;24.778;2022-09-01T09:18:47;2.75;;;1.00;;
40907;SDS011;51055;59.436;24.778;2022-09-01T09:21:31;2.35;;;0.90;;
40907;SDS011;51055;59.436;24.778;2022-09-01T09:26:35;2.33;;;0.82;;
40907;SDS011;51055;59.436;24.778;2022-09-01T09:29:10;2.50;;;0.70;;
40907;SDS011;51055;59.436;24.778;2022-09-01T09:31:38;1.85;;;0.95;;
40907;SDS011;51055;59.436;24.778;2022-09-01T09:34:16;1.63;;;0.80;;
40907;SDS011;51055;59.436;24.778;2022-09-01T09:40:01;1.48;;;0.60;;
40907;SDS011;51055;59.436;24.778;2022-09-01T09:42:29;3.13;;;0.80;;
40907;SDS011;51055;59.436;24.778;2022-09-01T09:45:02;2.60;;;0.77;;
40907;SDS011;51055;59.436;24.778;2022-09-01T09:47:38;1.50;;;0.70;;
40907;SDS011;51055;59.436;24.778;2022-09-01T09:50:23;2.10;;;0.80;;
40907;SDS011;51055;59.436;24.778;2022-09-01T09:53:15;1.58;;;0.88;;
40907;SDS011;51055;59.436;24.778;2022-09-01T09:56:00;2.72;;;0.90;;
40907;SDS011;51055;59.436;24.778;2022-09-01T09:58:35;3.67;;;0.90;;
40907;SDS011;51055;59.436;24.778;2022-09-01T10:01:09;1.05;;;0.70;;
40907;SDS011;51055;59.436;24.778;2022-09-01T10:03:55;2.42;;;0.80;;
40907;SDS011;51055;59.436;24.778;2022-09-01T10:09:04;2.33;;;0.90;;
40907;SDS011;51055;59.436;24.778;2022-09-01T10:11:36;6.15;;;1.02;;
40907;SDS011;51055;59.436;24.778;2022-09-01T10:14:16;2.00;;;0.90;;
40907;SDS011;51055;59.436;24.778;2022-09-01T10:17:08;2.30;;;0.90;;
40907;SDS011;51055;59.436;24.778;2022-09-01T10:19:56;3.38;;;1.10;;
40907;SDS011;51055;59.436;24.778;2022-09-01T10:22:38;3.15;;;1.00;;
40907;SDS011;51055;59.436;24.778;2022-09-01T10:25:08;4.10;;;1.10;;
40907;SDS011;51055;59.436;24.778;2022-09-01T10:27:50;1.98;;;1.00;;
40907;SDS011;51055;59.436;24.778;2022-09-01T10:30:25;3.25;;;1.27;;
40907;SDS011;51055;59.436;24.778;2022-09-01T10:32:58;2.22;;;0.98;;
40907;SDS011;51055;59.436;24.778;2022-09-01T10:35:42;3.55;;;1.40;;
40907;SDS011;51055;59.436;24.778;2022-09-01T10:38:17;5.18;;;1.48;;
40907;SDS011;51055;59.436;24.778;2022-09-01T10:40:47;3.60;;;1.38;;
40907;SDS011;51055;59.436;24.778;2022-09-01T10:48:53;2.85;;;1.38;;
40907;SDS011;51055;59.436;24.778;2022-09-01T10:59:45;2.83;;;0.80;;
40907;SDS011;51055;59.436;24.778;2022-09-01T11:02:23;1.92;;;0.98;;
40907;SDS011;51055;59.436;24.778;2022-09-01T11:15:46;2.10;;;0.75;;
40907;SDS011;51055;59.436;24.778;2022-09-01T11:18:16;1.65;;;0.70;;
40907;SDS011;51055;59.436;24.778;2022-09-01T11:20:53;2.05;;;0.70;;
40907;SDS011;51055;59.436;24.778;2022-09-01T11:23:28;1.80;;;0.80;;
40907;SDS011;51055;59.436;24.778;2022-09-01T11:25:58;1.65;;;0.70;;
40907;SDS011;51055;59.436;24.778;2022-09-01T11:28:45;1.50;;;0.70;;
40907;SDS011;51055;59.436;24.778;2022-09-01T11:31:37;4.10;;;0.98;;
40907;SDS011;51055;59.436;24.778;2022-09-01T11:42:06;2.90;;;0.85;;
40907;SDS011;51055;59.436;24.778;2022-09-01T11:47:41;1.55;;;0.60;;
40907;SDS011;51055;59.436;24.778;2022-09-01T11:50:18;1.45;;;0.73;;
40907;SDS011;51055;59.436;24.778;2022-09-01T11:52:55;1.25;;;0.80;;
40907;SDS011;51055;59.436;24.778;2022-09-01T11:55:36;2.92;;;0.60;;
40907;SDS011;51055;59.436;24.778;2022-09-01T11:58:03;3.05;;;0.70;;
40907;SDS011;51055;59.436;24.778;2022-09-01T12:00:34;2.80;;;1.05;;
40907;SDS011;51055;59.436;24.778;2022-09-01T12:05:48;1.38;;;0.70;;
40907;SDS011;51055;59.436;24.778;2022-09-01T12:08:26;1.57;;;0.60;;
40907;SDS011;51055;59.436;24.778;2022-09-01T12:14:00;3.47;;;0.60;;
40907;SDS011;51055;59.436;24.778;2022-09-01T12:16:33;3.38;;;0.70;;
40907;SDS011;51055;59.436;24.778;2022-09-01T12:19:04;3.65;;;0.75;;
40907;SDS011;51055;59.436;24.778;2022-09-01T12:21:36;1.60;;;0.63;;
40907;SDS011;51055;59.436;24.778;2022-09-01T12:24:17;2.35;;;0.60;;
40907;SDS011;51055;59.436;24.778;2022-09-01T12:26:47;3.60;;;0.80;;
40907;SDS011;51055;59.436;24.778;2022-09-01T12:29:17;2.92;;;0.50;;
40907;SDS011;51055;59.436;24.778;2022-09-01T12:31:46;1.63;;;0.70;;
40907;SDS011;51055;59.436;24.778;2022-09-01T12:34:28;2.00;;;0.80;;
40907;SDS011;51055;59.436;24.778;2022-09-01T12:39:41;2.28;;;0.60;;
40907;SDS011;51055;59.436;24.778;2022-09-01T12:44:49;1.67;;;0.60;;
40907;SDS011;51055;59.436;24.778;2022-09-01T12:52:49;4.75;;;0.73;;
40907;SDS011;51055;59.436;24.778;2022-09-01T12:55:20;5.13;;;0.80;;
40907;SDS011;51055;59.436;24.778;2022-09-01T12:58:18;2.60;;;0.55;;
40907;SDS011;51055;59.436;24.778;2022-09-01T13:00:57;1.20;;;0.52;;
40907;SDS011;51055;59.436;24.778;2022-09-01T13:03:31;1.13;;;0.50;;
40907;SDS011;51055;59.436;24.778;2022-09-01T13:06:01;0.98;;;0.52;;
40907;SDS011;51055;59.436;24.778;2022-09-01T13:08:31;1.63;;;0.63;;
40907;SDS011;51055;59.436;24.778;2022-09-01T13:11:04;2.30;;;0.70;;
40907;SDS011;51055;59.436;24.778;2022-09-01T13:13:37;0.75;;;0.50;;
40907;SDS011;51055;59.436;24.778;2022-09-01T13:16:05;1.50;;;0.47;;
40907;SDS011;51055;59.436;24.778;2022-09-01T13:18:40;2.35;;;0.50;;
40907;SDS011;51055;59.436;24.778;2022-09-01T13:21:30;2.30;;;0.60;;
40907;SDS011;51055;59.436;24.778;2022-09-01T13:24:00;2.22;;;0.45;;
40907;SDS011;51055;59.436;24.778;2022-09-01T13:26:30;1.45;;;0.60;;
40907;SDS011;51055;59.436;24.778;2022-09-01T13:28:59;1.38;;;0.60;;
40907;SDS011;51055;59.436;24.778;2022-09-01T13:31:26;1.70;;;0.73;;
40907;SDS011;51055;59.436;24.778;2022-09-01T13:33:57;2.78;;;0.82;;
40907;SDS011;51055;59.436;24.778;2022-09-01T13:36:45;2.90;;;0.70;;
40907;SDS011;51055;59.436;24.778;2022-09-01T13:39:18;2.88;;;0.82;;
40907;SDS011;51055;59.436;24.778;2022-09-01T13:41:47;3.70;;;0.70;;
40907;SDS011;51055;59.436;24.778;2022-09-01T13:46:44;2.10;;;0.82;;
40907;SDS011;51055;59.436;24.778;2022-09-01T13:49:32;3.08;;;0.80;;
40907;SDS011;51055;59.436;24.778;2022-09-01T13:52:09;1.80;;;0.75;;
40907;SDS011;51055;59.436;24.778;2022-09-01T13:54:39;3.53;;;0.63;;
40907;SDS011;51055;59.436;24.778;2022-09-01T13:57:06;2.53;;;0.55;;
40907;SDS011;51055;59.436;24.778;2022-09-01T13:59:34;1.70;;;0.60;;
40907;SDS011;51055;59.436;24.778;2022-09-01T14:02:02;2.90;;;0.82;;
40907;SDS011;51055;59.436;24.778;2022-09-01T14:04:31;3.88;;;1.00;;
40907;SDS011;51055;59.436;24.778;2022-09-01T14:06:59;3.50;;;1.10;;
40907;SDS011;51055;59.436;24.778;2022-09-01T14:09:26;2.40;;;0.90;;
40907;SDS011;51055;59.436;24.778;2022-09-01T14:11:54;2.15;;;0.80;;
40907;SDS011;51055;59.436;24.778;2022-09-01T14:16:51;3.07;;;0.77;;
40907;SDS011;51055;59.436;24.778;2022-09-01T14:19:19;3.58;;;0.93;;
40907;SDS011;51055;59.436;24.778;2022-09-01T14:21:47;3.38;;;0.93;;
40907;SDS011;51055;59.436;24.778;2022-09-01T14:24:15;1.40;;;0.70;;
40907;SDS011;51055;59.436;24.778;2022-09-01T14:26:47;3.17;;;1.00;;
40907;SDS011;51055;59.436;24.778;2022-09-01T14:29:18;3.78;;;0.77;;
40907;SDS011;51055;59.436;24.778;2022-09-01T14:31:45;1.52;;;0.80;;
40907;SDS011;51055;59.436;24.778;2022-09-01T14:34:13;1.95;;;0.85;;
40907;SDS011;51055;59.436;24.778;2022-09-01T14:36:42;3.13;;;0.70;;
40907;SDS011;51055;59.436;24.778;2022-09-01T14:39:12;2.38;;;0.90;;
40907;SDS011;51055;59.436;24.778;2022-09-01T14:41:39;3.20;;;0.70;;
40907;SDS011;51055;59.436;24.778;2022-09-01T14:44:07;1.48;;;0.77;;
40907;SDS011;51055;59.436;24.778;2022-09-01T14:46:35;2.00;;;0.80;;
40907;SDS011;51055;59.436;24.778;2022-09-01T14:49:03;4.50;;;0.70;;
40907;SDS011;51055;59.436;24.778;2022-09-01T14:51:31;3.72;;;0.55;;
40907;SDS011;51055;59.436;24.778;2022-09-01T14:54:19;2.10;;;0.93;;
40907;SDS011;51055;59.436;24.778;2022-09-01T14:56:48;4.10;;;1.00;;
40907;SDS011;51055;59.436;24.778;2022-09-01T14:59:36;3.80;;;0.90;;
40907;SDS011;51055;59.436;24.778;2022-09-01T15:02:04;2.45;;;0.98;;
40907;SDS011;51055;59.436;24.778;2022-09-01T15:04:32;2.78;;;0.88;;
40907;SDS011;51055;59.436;24.778;2022-09-01T15:07:00;3.00;;;0.90;;
40907;SDS011;51055;59.436;24.778;2022-09-01T15:09:32;3.00;;;0.98;;
40907;SDS011;51055;59.436;24.778;2022-09-01T15:12:01;5.47;;;1.35;;
40907;SDS011;51055;59.436;24.778;2022-09-01T15:14:33;3.38;;;0.88;;
40907;SDS011;51055;59.436;24.778;2022-09-01T15:17:00;1.65;;;0.77;;
40907;SDS011;51055;59.436;24.778;2022-09-01T15:19:28;2.65;;;1.05;;
40907;SDS011;51055;59.436;24.778;2022-09-01T15:21:55;3.05;;;1.00;;
40907;SDS011;51055;59.436;24.778;2022-09-01T15:24:23;1.85;;;0.90;;
40907;SDS011;51055;59.436;24.778;2022-09-01T15:26:50;3.03;;;0.90;;
40907;SDS011;51055;59.436;24.778;2022-09-01T15:29:18;2.60;;;1.40;;
40907;SDS011;51055;59.436;24.778;2022-09-01T15:31:46;4.10;;;1.55;;
40907;SDS011;51055;59.436;24.778;2022-09-01T15:34:14;3.63;;;1.55;;
40907;SDS011;51055;59.436;24.778;2022-09-01T15:36:44;4.57;;;1.90;;
40907;SDS011;51055;59.436;24.778;2022-09-01T15:39:12;4.05;;;2.10;;
40907;SDS011;51055;59.436;24.778;2022-09-01T15:41:42;4.68;;;1.80;;
40907;SDS011;51055;59.436;24.778;2022-09-01T15:44:11;3.20;;;1.50;;
40907;SDS011;51055;59.436;24.778;2022-09-01T15:46:38;4.97;;;1.88;;
40907;SDS011;51055;59.436;24.778;2022-09-01T15:49:08;4.40;;;2.00;;
40907;SDS011;51055;59.436;24.778;2022-09-01T15:51:40;3.03;;;1.38;;
40907;SDS011;51055;59.436;24.778;2022-09-01T15:54:13;3.80;;;1.58;;
40907;SDS011;51055;59.436;24.778;2022-09-01T15:56:43;4.22;;;1.35;;
40907;SDS011;51055;59.436;24.778;2022-09-01T15:59:13;3.60;;;1.20;;
40907;SDS011;51055;59.436;24.778;2022-09-01T16:01:43;5.22;;;1.08;;
40907;SDS011;51055;59.436;24.778;2022-09-01T16:04:13;2.75;;;1.00;;
40907;SDS011;51055;59.436;24.778;2022-09-01T16:06:47;1.38;;;0.80;;
40907;SDS011;51055;59.436;24.778;2022-09-01T16:09:16;2.03;;;0.90;;
40907;SDS011;51055;59.436;24.778;2022-09-01T16:11:44;1.73;;;0.77;;
40907;SDS011;51055;59.436;24.778;2022-09-01T16:14:13;1.17;;;0.63;;
40907;SDS011;51055;59.436;24.778;2022-09-01T16:22:36;2.58;;;0.90;;
40907;SDS011;51055;59.436;24.778;2022-09-01T16:25:27;2.60;;;0.90;;
40907;SDS011;51055;59.436;24.778;2022-09-01T16:28:01;1.48;;;0.68;;
40907;SDS011;51055;59.436;24.778;2022-09-01T16:33:05;0.98;;;0.60;;
40907;SDS011;51055;59.436;24.778;2022-09-01T16:41:24;2.22;;;0.70;;
40907;SDS011;51055;59.436;24.778;2022-09-01T16:44:16;1.73;;;0.80;;
40907;SDS011;51055;59.436;24.778;2022-09-01T16:52:18;4.07;;;1.10;;
40907;SDS011;51055;59.436;24.778;2022-09-01T16:57:48;2.42;;;1.20;;
40907;SDS011;51055;59.436;24.778;2022-09-01T17:00:31;3.00;;;1.08;;
40907;SDS011;51055;59.436;24.778;2022-09-01T17:06:34;3.72;;;1.20;;